Elger Bay, Washington
Current Conditions -  °F | °C
As of 8:15 AM on Saturday 25 Oct 2014 (Local Time) from KAWO Reporting Station
Overcast Overcast  
Wind Chill: 44°   Ceiling: 8500
Heat Index: 46°   Visibility: 10mi
Dew Point: 43°   Wind: 6mph
Humidity: 87%   Direction: 160°SSE
Pressure: 29.54"   Gusts: NA
Location:  48.2145°N, 122.297°W
Report Text: KAWO 251515Z AUTO 16005KT 10SM BKN085 OVC120 08/06 A2954 RMK AO1
Loading
Personal Weather Stations






























Interactive Weather Map
Tropical Storm Tracking
New forecast layout! Learn more

10-Day Weather Forecast

Advertisements
Track Severe Weather on mobile